sensor_id;sensor_type;location;lat;lon;timestamp;temperature;humidity
66710;DHT22;53624;0.000;0.000;2022-11-12T00:02:39;14.30;99.90
66710;DHT22;53624;0.000;0.000;2022-11-12T00:05:25;14.30;99.90
66710;DHT22;53624;0.000;0.000;2022-11-12T00:08:13;14.30;99.90
66710;DHT22;53624;0.000;0.000;2022-11-12T00:10:59;14.30;99.90
66710;DHT22;53624;0.000;0.000;2022-11-12T00:13:45;14.30;99.90
66710;DHT22;53624;0.000;0.000;2022-11-12T00:16:31;14.30;99.90
66710;DHT22;53624;0.000;0.000;2022-11-12T00:19:16;14.20;99.90
66710;DHT22;53624;0.000;0.000;2022-11-12T00:22:02;14.20;99.90
66710;DHT22;53624;0.000;0.000;2022-11-12T00:24:50;14.20;99.90
66710;DHT22;53624;0.000;0.000;2022-11-12T00:27:36;14.20;99.90
66710;DHT22;53624;0.000;0.000;2022-11-12T00:30:21;14.20;99.90
66710;DHT22;53624;0.000;0.000;2022-11-12T00:33:07;14.20;99.90
66710;DHT22;53624;0.000;0.000;2022-11-12T00:35:53;14.20;99.90
66710;DHT22;53624;0.000;0.000;2022-11-12T00:38:43;14.20;99.90
66710;DHT22;53624;0.000;0.000;2022-11-12T00:41:31;14.20;99.90
66710;DHT22;53624;0.000;0.000;2022-11-12T00:44:17;14.10;99.90
66710;DHT22;53624;0.000;0.000;2022-11-12T00:47:03;14.10;99.90
66710;DHT22;53624;0.000;0.000;2022-11-12T00:49:48;14.10;99.90
66710;DHT22;53624;0.000;0.000;2022-11-12T00:52:34;14.10;99.90
66710;DHT22;53624;0.000;0.000;2022-11-12T00:55:20;14.10;99.90
66710;DHT22;53624;0.000;0.000;2022-11-12T00:58:08;14.10;99.90
66710;DHT22;53624;0.000;0.000;2022-11-12T01:00:54;14.10;99.90
66710;DHT22;53624;0.000;0.000;2022-11-12T01:03:40;14.10;99.90
66710;DHT22;53624;0.000;0.000;2022-11-12T01:06:27;14.10;99.90
66710;DHT22;53624;0.000;0.000;2022-11-12T01:09:12;14.00;99.90
66710;DHT22;53624;0.000;0.000;2022-11-12T01:11:58;14.00;99.90
66710;DHT22;53624;0.000;0.000;2022-11-12T01:14:46;14.00;99.90
66710;DHT22;53624;0.000;0.000;2022-11-12T01:17:32;14.00;99.90
66710;DHT22;53624;0.000;0.000;2022-11-12T01:20:18;14.00;99.90
66710;DHT22;53624;0.000;0.000;2022-11-12T01:23:04;14.00;99.90
66710;DHT22;53624;0.000;0.000;2022-11-12T01:25:50;14.00;99.90
66710;DHT22;53624;0.000;0.000;2022-11-12T01:28:36;14.00;99.90
66710;DHT22;53624;0.000;0.000;2022-11-12T01:31:24;14.00;99.90
66710;DHT22;53624;0.000;0.000;2022-11-12T01:34:10;13.90;99.90
66710;DHT22;53624;0.000;0.000;2022-11-12T01:36:56;14.00;99.90
66710;DHT22;53624;0.000;0.000;2022-11-12T01:39:42;14.00;99.90
66710;DHT22;53624;0.000;0.000;2022-11-12T01:42:28;13.90;99.90
66710;DHT22;53624;0.000;0.000;2022-11-12T01:45:15;13.90;99.90
66710;DHT22;53624;0.000;0.000;2022-11-12T01:48:02;13.90;99.90
66710;DHT22;53624;0.000;0.000;2022-11-12T01:50:49;13.90;99.90
66710;DHT22;53624;0.000;0.000;2022-11-12T01:53:37;13.90;99.90
66710;DHT22;53624;0.000;0.000;2022-11-12T01:56:24;13.90;99.90
66710;DHT22;53624;0.000;0.000;2022-11-12T01:59:13;13.90;99.90
66710;DHT22;53624;0.000;0.000;2022-11-12T02:02:01;13.90;99.90
66710;DHT22;53624;0.000;0.000;2022-11-12T02:04:49;13.90;99.90
66710;DHT22;53624;0.000;0.000;2022-11-12T02:07:35;13.80;99.90
66710;DHT22;53624;0.000;0.000;2022-11-12T02:10:22;13.80;99.90
66710;DHT22;53624;0.000;0.000;2022-11-12T02:13:08;13.80;99.90
66710;DHT22;53624;0.000;0.000;2022-11-12T02:16:12;13.80;99.90
66710;DHT22;53624;0.000;0.000;2022-11-12T02:18:59;13.80;99.90
66710;DHT22;53624;0.000;0.000;2022-11-12T02:21:46;13.80;99.90
66710;DHT22;53624;0.000;0.000;2022-11-12T02:24:33;13.70;99.90
66710;DHT22;53624;0.000;0.000;2022-11-12T02:27:20;13.80;99.90
66710;DHT22;53624;0.000;0.000;2022-11-12T02:30:06;13.70;99.90
66710;DHT22;53624;0.000;0.000;2022-11-12T02:32:52;13.80;99.90
66710;DHT22;53624;0.000;0.000;2022-11-12T02:35:38;13.70;99.90
66710;DHT22;53624;0.000;0.000;2022-11-12T02:38:26;13.70;99.90
66710;DHT22;53624;0.000;0.000;2022-11-12T02:41:12;13.70;99.90
66710;DHT22;53624;0.000;0.000;2022-11-12T02:43:58;13.70;99.90
66710;DHT22;53624;0.000;0.000;2022-11-12T02:46:44;13.70;99.90
66710;DHT22;53624;0.000;0.000;2022-11-12T02:49:30;13.70;99.90
66710;DHT22;53624;0.000;0.000;2022-11-12T02:52:16;13.70;99.90
66710;DHT22;53624;0.000;0.000;2022-11-12T02:55:04;13.70;99.90
66710;DHT22;53624;0.000;0.000;2022-11-12T02:57:50;13.70;99.90
66710;DHT22;53624;0.000;0.000;2022-11-12T03:00:36;13.60;99.90
66710;DHT22;53624;0.000;0.000;2022-11-12T03:03:22;13.60;99.90
66710;DHT22;53624;0.000;0.000;2022-11-12T03:06:09;13.60;99.90
66710;DHT22;53624;0.000;0.000;2022-11-12T03:08:54;13.60;99.90
66710;DHT22;53624;0.000;0.000;2022-11-12T03:11:42;13.60;99.90
66710;DHT22;53624;0.000;0.000;2022-11-12T03:14:28;13.60;99.90
66710;DHT22;53624;0.000;0.000;2022-11-12T03:17:14;13.60;99.90
66710;DHT22;53624;0.000;0.000;2022-11-12T03:20:00;13.60;99.90
66710;DHT22;53624;0.000;0.000;2022-11-12T03:22:53;13.60;99.90
66710;DHT22;53624;0.000;0.000;2022-11-12T03:25:39;13.60;99.90
66710;DHT22;53624;0.000;0.000;2022-11-12T03:28:26;13.60;99.90
66710;DHT22;53624;0.000;0.000;2022-11-12T03:31:12;13.50;99.90
66710;DHT22;53624;0.000;0.000;2022-11-12T03:33:58;13.50;99.90
66710;DHT22;53624;0.000;0.000;2022-11-12T03:36:44;13.50;99.90
66710;DHT22;53624;0.000;0.000;2022-11-12T03:39:30;13.50;99.90
66710;DHT22;53624;0.000;0.000;2022-11-12T03:42:16;13.50;99.90
66710;DHT22;53624;0.000;0.000;2022-11-12T03:45:03;13.50;99.90
66710;DHT22;53624;0.000;0.000;2022-11-12T03:47:50;13.50;99.90
66710;DHT22;53624;0.000;0.000;2022-11-12T03:50:36;13.50;99.90
66710;DHT22;53624;0.000;0.000;2022-11-12T03:53:22;13.50;99.90
66710;DHT22;53624;0.000;0.000;2022-11-12T03:56:08;13.50;99.90
66710;DHT22;53624;0.000;0.000;2022-11-12T03:58:54;13.40;99.90
66710;DHT22;53624;0.000;0.000;2022-11-12T04:01:41;13.40;99.90
66710;DHT22;53624;0.000;0.000;2022-11-12T04:04:27;13.40;99.90
66710;DHT22;53624;0.000;0.000;2022-11-12T04:07:33;13.40;99.90
66710;DHT22;53624;0.000;0.000;2022-11-12T04:10:37;13.40;99.90
66710;DHT22;53624;0.000;0.000;2022-11-12T04:13:23;13.40;99.90
66710;DHT22;53624;0.000;0.000;2022-11-12T04:16:16;13.40;99.90
66710;DHT22;53624;0.000;0.000;2022-11-12T04:19:21;13.40;99.90
66710;DHT22;53624;0.000;0.000;2022-11-12T04:22:33;13.40;99.90
66710;DHT22;53624;0.000;0.000;2022-11-12T04:25:19;13.40;99.90
66710;DHT22;53624;0.000;0.000;2022-11-12T04:28:22;13.40;99.90
66710;DHT22;53624;0.000;0.000;2022-11-12T04:31:08;13.30;99.90
66710;DHT22;53624;0.000;0.000;2022-11-12T04:33:53;13.30;99.90
66710;DHT22;53624;0.000;0.000;2022-11-12T04:37:01;13.30;99.90
66710;DHT22;53624;0.000;0.000;2022-11-12T04:39:47;13.30;99.90
66710;DHT22;53624;0.000;0.000;2022-11-12T04:42:33;13.30;99.90
66710;DHT22;53624;0.000;0.000;2022-11-12T04:45:37;13.30;99.90
66710;DHT22;53624;0.000;0.000;2022-11-12T04:48:23;13.30;99.90
66710;DHT22;53624;0.000;0.000;2022-11-12T04:51:09;13.30;99.90
66710;DHT22;53624;0.000;0.000;2022-11-12T04:54:11;13.30;99.90
66710;DHT22;53624;0.000;0.000;2022-11-12T04:56:57;13.30;99.90
66710;DHT22;53624;0.000;0.000;2022-11-12T04:59:43;13.30;99.90
66710;DHT22;53624;0.000;0.000;2022-11-12T05:02:28;13.30;99.90
66710;DHT22;53624;0.000;0.000;2022-11-12T05:05:14;13.30;99.90
66710;DHT22;53624;0.000;0.000;2022-11-12T05:08:01;13.20;99.90
66710;DHT22;53624;0.000;0.000;2022-11-12T05:10:48;13.20;99.90
66710;DHT22;53624;0.000;0.000;2022-11-12T05:13:34;13.20;99.90
66710;DHT22;53624;0.000;0.000;2022-11-12T05:16:20;13.20;99.90
66710;DHT22;53624;0.000;0.000;2022-11-12T05:19:06;13.20;99.90
66710;DHT22;53624;0.000;0.000;2022-11-12T05:21:52;13.20;99.90
66710;DHT22;53624;0.000;0.000;2022-11-12T05:24:58;13.20;99.90
66710;DHT22;53624;0.000;0.000;2022-11-12T05:27:45;13.20;99.90
66710;DHT22;53624;0.000;0.000;2022-11-12T05:30:31;13.20;99.90
66710;DHT22;53624;0.000;0.000;2022-11-12T05:33:17;13.20;99.90
66710;DHT22;53624;0.000;0.000;2022-11-12T05:36:03;13.20;99.90
66710;DHT22;53624;0.000;0.000;2022-11-12T05:38:49;13.10;99.90
66710;DHT22;53624;0.000;0.000;2022-11-12T05:41:35;13.10;99.90
66710;DHT22;53624;0.000;0.000;2022-11-12T05:44:23;13.10;99.90
66710;DHT22;53624;0.000;0.000;2022-11-12T05:47:09;13.10;99.90
66710;DHT22;53624;0.000;0.000;2022-11-12T05:49:55;13.10;99.90
66710;DHT22;53624;0.000;0.000;2022-11-12T05:52:40;13.10;99.90
66710;DHT22;53624;0.000;0.000;2022-11-12T05:55:27;13.10;99.90
66710;DHT22;53624;0.000;0.000;2022-11-12T05:58:13;13.10;99.90
66710;DHT22;53624;0.000;0.000;2022-11-12T06:01:00;13.10;99.90
66710;DHT22;53624;0.000;0.000;2022-11-12T06:03:46;13.10;99.90
66710;DHT22;53624;0.000;0.000;2022-11-12T06:06:32;13.10;99.90
66710;DHT22;53624;0.000;0.000;2022-11-12T06:09:18;13.10;99.90
66710;DHT22;53624;0.000;0.000;2022-11-12T06:12:04;13.10;99.90
66710;DHT22;53624;0.000;0.000;2022-11-12T06:14:51;13.10;99.90
66710;DHT22;53624;0.000;0.000;2022-11-12T06:17:39;13.00;99.90
66710;DHT22;53624;0.000;0.000;2022-11-12T06:20:25;13.00;99.90
66710;DHT22;53624;0.000;0.000;2022-11-12T06:23:11;13.00;99.90
66710;DHT22;53624;0.000;0.000;2022-11-12T06:25:57;13.00;99.90
66710;DHT22;53624;0.000;0.000;2022-11-12T06:28:43;13.00;99.90
66710;DHT22;53624;0.000;0.000;2022-11-12T06:31:29;13.00;99.90
66710;DHT22;53624;0.000;0.000;2022-11-12T06:34:17;13.00;99.90
66710;DHT22;53624;0.000;0.000;2022-11-12T06:37:03;13.00;99.90
66710;DHT22;53624;0.000;0.000;2022-11-12T06:39:49;13.00;99.90
66710;DHT22;53624;0.000;0.000;2022-11-12T06:42:35;13.00;99.90
66710;DHT22;53624;0.000;0.000;2022-11-12T06:45:21;13.00;99.90
66710;DHT22;53624;0.000;0.000;2022-11-12T06:48:07;13.00;99.90
66710;DHT22;53624;0.000;0.000;2022-11-12T06:50:54;13.00;99.90
66710;DHT22;53624;0.000;0.000;2022-11-12T06:53:40;13.00;99.90
66710;DHT22;53624;0.000;0.000;2022-11-12T06:56:26;13.00;99.90
66710;DHT22;53624;0.000;0.000;2022-11-12T06:59:12;13.00;99.90
66710;DHT22;53624;0.000;0.000;2022-11-12T07:01:58;13.00;99.90
66710;DHT22;53624;0.000;0.000;2022-11-12T07:04:44;13.00;99.90
66710;DHT22;53624;0.000;0.000;2022-11-12T07:07:31;13.00;99.90
66710;DHT22;53624;0.000;0.000;2022-11-12T07:10:17;13.10;99.90
66710;DHT22;53624;0.000;0.000;2022-11-12T07:13:03;13.10;99.90
66710;DHT22;53624;0.000;0.000;2022-11-12T07:15:49;13.10;99.90
66710;DHT22;53624;0.000;0.000;2022-11-12T07:18:35;13.10;99.90
66710;DHT22;53624;0.000;0.000;2022-11-12T07:21:21;13.10;99.90
66710;DHT22;53624;0.000;0.000;2022-11-12T07:24:09;13.10;99.90
66710;DHT22;53624;0.000;0.000;2022-11-12T07:26:55;13.20;99.90
66710;DHT22;53624;0.000;0.000;2022-11-12T07:29:41;13.20;99.90
66710;DHT22;53624;0.000;0.000;2022-11-12T07:32:27;13.30;99.90
66710;DHT22;53624;0.000;0.000;2022-11-12T07:35:13;13.50;99.90
66710;DHT22;53624;0.000;0.000;2022-11-12T07:37:59;13.40;99.90
66710;DHT22;53624;0.000;0.000;2022-11-12T07:40:46;13.40;99.90
66710;DHT22;53624;0.000;0.000;2022-11-12T07:43:32;13.40;99.90
66710;DHT22;53624;0.000;0.000;2022-11-12T07:46:19;13.40;99.90
66710;DHT22;53624;0.000;0.000;2022-11-12T07:49:05;13.40;99.90
66710;DHT22;53624;0.000;0.000;2022-11-12T07:51:51;13.40;99.90
66710;DHT22;53624;0.000;0.000;2022-11-12T07:54:37;13.50;99.90
66710;DHT22;53624;0.000;0.000;2022-11-12T07:57:25;13.50;99.90
66710;DHT22;53624;0.000;0.000;2022-11-12T08:00:11;13.60;99.90
66710;DHT22;53624;0.000;0.000;2022-11-12T08:02:58;13.70;99.90
66710;DHT22;53624;0.000;0.000;2022-11-12T08:05:44;13.70;99.90
66710;DHT22;53624;0.000;0.000;2022-11-12T08:08:30;13.70;99.90
66710;DHT22;53624;0.000;0.000;2022-11-12T08:11:16;13.70;99.90
66710;DHT22;53624;0.000;0.000;2022-11-12T08:14:04;13.80;99.90
66710;DHT22;53624;0.000;0.000;2022-11-12T08:16:50;13.80;99.90
66710;DHT22;53624;0.000;0.000;2022-11-12T08:19:36;13.80;99.90
66710;DHT22;53624;0.000;0.000;2022-11-12T08:22:21;13.90;99.90
66710;DHT22;53624;0.000;0.000;2022-11-12T08:25:07;13.90;99.90
66710;DHT22;53624;0.000;0.000;2022-11-12T08:27:57;14.00;99.90
66710;DHT22;53624;0.000;0.000;2022-11-12T08:30:45;14.00;99.90
66710;DHT22;53624;0.000;0.000;2022-11-12T08:33:31;14.10;99.90
66710;DHT22;53624;0.000;0.000;2022-11-12T08:36:17;14.10;99.90
66710;DHT22;53624;0.000;0.000;2022-11-12T08:39:03;14.20;99.90
66710;DHT22;53624;0.000;0.000;2022-11-12T08:41:49;14.30;99.90
66710;DHT22;53624;0.000;0.000;2022-11-12T08:44:35;14.40;99.90
66710;DHT22;53624;0.000;0.000;2022-11-12T08:47:22;14.40;99.90
66710;DHT22;53624;0.000;0.000;2022-11-12T08:50:08;14.50;99.90
66710;DHT22;53624;0.000;0.000;2022-11-12T08:52:57;14.50;99.90
66710;DHT22;53624;0.000;0.000;2022-11-12T08:55:44;14.50;99.90
66710;DHT22;53624;0.000;0.000;2022-11-12T08:58:30;14.60;99.90
66710;DHT22;53624;0.000;0.000;2022-11-12T09:01:16;14.70;99.90
66710;DHT22;53624;0.000;0.000;2022-11-12T09:04:04;14.70;99.90
66710;DHT22;53624;0.000;0.000;2022-11-12T09:06:50;14.80;99.90
66710;DHT22;53624;0.000;0.000;2022-11-12T09:09:36;14.90;99.90
66710;DHT22;53624;0.000;0.000;2022-11-12T09:12:22;14.90;99.90
66710;DHT22;53624;0.000;0.000;2022-11-12T09:15:08;14.90;99.90
66710;DHT22;53624;0.000;0.000;2022-11-12T09:17:54;15.00;99.90
66710;DHT22;53624;0.000;0.000;2022-11-12T09:20:42;15.00;99.90
66710;DHT22;53624;0.000;0.000;2022-11-12T09:23:29;15.10;99.90
66710;DHT22;53624;0.000;0.000;2022-11-12T09:26:15;15.20;99.90
66710;DHT22;53624;0.000;0.000;2022-11-12T09:29:01;15.30;99.90
66710;DHT22;53624;0.000;0.000;2022-11-12T09:31:47;15.30;99.90
66710;DHT22;53624;0.000;0.000;2022-11-12T09:34:33;15.40;99.90
66710;DHT22;53624;0.000;0.000;2022-11-12T09:37:20;15.60;99.90
66710;DHT22;53624;0.000;0.000;2022-11-12T09:40:08;15.70;99.90
66710;DHT22;53624;0.000;0.000;2022-11-12T09:42:56;15.90;99.90
66710;DHT22;53624;0.000;0.000;2022-11-12T09:45:42;16.10;99.90
66710;DHT22;53624;0.000;0.000;2022-11-12T09:48:31;16.20;99.90
66710;DHT22;53624;0.000;0.000;2022-11-12T09:51:20;16.40;99.90
66710;DHT22;53624;0.000;0.000;2022-11-12T09:54:18;16.50;99.90
66710;DHT22;53624;0.000;0.000;2022-11-12T09:57:08;16.60;99.90
66710;DHT22;53624;0.000;0.000;2022-11-12T09:59:54;16.70;99.90
66710;DHT22;53624;0.000;0.000;2022-11-12T10:02:43;16.80;99.90
66710;DHT22;53624;0.000;0.000;2022-11-12T10:05:34;16.90;99.90
66710;DHT22;53624;0.000;0.000;2022-11-12T10:08:25;17.00;99.90
66710;DHT22;53624;0.000;0.000;2022-11-12T10:11:28;17.10;99.90
66710;DHT22;53624;0.000;0.000;2022-11-12T10:14:43;17.20;99.90
66710;DHT22;53624;0.000;0.000;2022-11-12T10:17:34;17.30;99.90
66710;DHT22;53624;0.000;0.000;2022-11-12T10:20:21;17.40;99.90
66710;DHT22;53624;0.000;0.000;2022-11-12T10:23:13;17.50;99.90
66710;DHT22;53624;0.000;0.000;2022-11-12T10:26:00;17.50;99.90
66710;DHT22;53624;0.000;0.000;2022-11-12T10:28:56;17.70;99.90
66710;DHT22;53624;0.000;0.000;2022-11-12T10:31:45;17.80;99.90
66710;DHT22;53624;0.000;0.000;2022-11-12T10:34:31;17.90;99.90
66710;DHT22;53624;0.000;0.000;2022-11-12T10:37:23;18.00;99.80
66710;DHT22;53624;0.000;0.000;2022-11-12T10:40:28;18.00;99.80
66710;DHT22;53624;0.000;0.000;2022-11-12T10:43:21;18.10;99.90
66710;DHT22;53624;0.000;0.000;2022-11-12T10:46:16;18.30;99.80
66710;DHT22;53624;0.000;0.000;2022-11-12T10:49:03;18.30;99.80
66710;DHT22;53624;0.000;0.000;2022-11-12T10:51:53;18.50;99.80
66710;DHT22;53624;0.000;0.000;2022-11-12T10:54:39;18.50;99.80
66710;DHT22;53624;0.000;0.000;2022-11-12T10:57:25;18.70;99.80
66710;DHT22;53624;0.000;0.000;2022-11-12T11:00:15;18.70;99.90
66710;DHT22;53624;0.000;0.000;2022-11-12T11:03:04;18.80;99.90
66710;DHT22;53624;0.000;0.000;2022-11-12T11:05:51;18.80;99.80
66710;DHT22;53624;0.000;0.000;2022-11-12T11:08:39;18.90;99.90
66710;DHT22;53624;0.000;0.000;2022-11-12T11:11:26;19.00;99.90
66710;DHT22;53624;0.000;0.000;2022-11-12T11:14:23;19.00;99.90
66710;DHT22;53624;0.000;0.000;2022-11-12T11:17:13;19.10;99.90
66710;DHT22;53624;0.000;0.000;2022-11-12T11:20:01;19.10;99.90
66710;DHT22;53624;0.000;0.000;2022-11-12T11:22:48;19.20;99.90
66710;DHT22;53624;0.000;0.000;2022-11-12T11:25:36;19.20;99.90
66710;DHT22;53624;0.000;0.000;2022-11-12T11:28:25;19.30;99.90
66710;DHT22;53624;0.000;0.000;2022-11-12T11:31:19;19.30;99.90
66710;DHT22;53624;0.000;0.000;2022-11-12T11:34:12;19.30;99.90
66710;DHT22;53624;0.000;0.000;2022-11-12T11:37:05;19.30;99.90
66710;DHT22;53624;0.000;0.000;2022-11-12T11:39:58;19.40;99.90
66710;DHT22;53624;0.000;0.000;2022-11-12T11:42:53;19.40;99.90
66710;DHT22;53624;0.000;0.000;2022-11-12T11:45:47;19.40;99.90
66710;DHT22;53624;0.000;0.000;2022-11-12T11:48:40;19.40;99.90
66710;DHT22;53624;0.000;0.000;2022-11-12T11:51:35;19.40;99.90
66710;DHT22;53624;0.000;0.000;2022-11-12T11:57:27;19.40;99.90
66710;DHT22;53624;0.000;0.000;2022-11-12T12:00:14;19.40;99.90
66710;DHT22;53624;0.000;0.000;2022-11-12T12:06:18;19.40;99.90
66710;DHT22;53624;0.000;0.000;2022-11-12T12:09:08;19.50;99.90
66710;DHT22;53624;0.000;0.000;2022-11-12T12:12:00;19.50;99.90
66710;DHT22;53624;0.000;0.000;2022-11-12T12:14:52;19.50;99.90
66710;DHT22;53624;0.000;0.000;2022-11-12T12:17:44;19.60;99.90
66710;DHT22;53624;0.000;0.000;2022-11-12T12:20:34;19.60;99.90
66710;DHT22;53624;0.000;0.000;2022-11-12T12:23:26;19.60;99.60
66710;DHT22;53624;0.000;0.000;2022-11-12T12:26:14;19.70;99.20
66710;DHT22;53624;0.000;0.000;2022-11-12T12:29:01;19.80;98.80
66710;DHT22;53624;0.000;0.000;2022-11-12T12:31:51;20.00;99.30
66710;DHT22;53624;0.000;0.000;2022-11-12T12:34:41;20.30;99.10
66710;DHT22;53624;0.000;0.000;2022-11-12T12:37:30;20.40;99.10
66710;DHT22;53624;0.000;0.000;2022-11-12T12:40:19;20.50;99.30
66710;DHT22;53624;0.000;0.000;2022-11-12T12:43:09;20.50;99.60
66710;DHT22;53624;0.000;0.000;2022-11-12T12:45:55;20.50;99.60
66710;DHT22;53624;0.000;0.000;2022-11-12T12:48:44;20.50;99.90
66710;DHT22;53624;0.000;0.000;2022-11-12T12:51:31;20.40;99.90
66710;DHT22;53624;0.000;0.000;2022-11-12T12:57:28;20.20;99.90
66710;DHT22;53624;0.000;0.000;2022-11-12T13:00:25;20.10;99.90
66710;DHT22;53624;0.000;0.000;2022-11-12T13:03:11;20.00;99.90
66710;DHT22;53624;0.000;0.000;2022-11-12T13:06:12;19.90;99.90
66710;DHT22;53624;0.000;0.000;2022-11-12T13:09:02;19.90;99.90
66710;DHT22;53624;0.000;0.000;2022-11-12T13:11:53;19.80;99.90
66710;DHT22;53624;0.000;0.000;2022-11-12T13:18:07;19.80;99.90
66710;DHT22;53624;0.000;0.000;2022-11-12T13:21:06;19.80;99.90
66710;DHT22;53624;0.000;0.000;2022-11-12T13:23:54;19.70;99.90
66710;DHT22;53624;0.000;0.000;2022-11-12T13:26:54;19.70;99.90
66710;DHT22;53624;0.000;0.000;2022-11-12T13:29:41;19.70;99.90
66710;DHT22;53624;0.000;0.000;2022-11-12T13:32:35;19.60;99.90
66710;DHT22;53624;0.000;0.000;2022-11-12T13:35:26;19.60;99.90
66710;DHT22;53624;0.000;0.000;2022-11-12T13:38:12;19.50;99.90
66710;DHT22;53624;0.000;0.000;2022-11-12T13:41:05;19.50;99.90
66710;DHT22;53624;0.000;0.000;2022-11-12T13:43:53;19.40;99.90
66710;DHT22;53624;0.000;0.000;2022-11-12T13:46:41;19.30;99.90
66710;DHT22;53624;0.000;0.000;2022-11-12T13:49:27;19.30;99.90
66710;DHT22;53624;0.000;0.000;2022-11-12T13:52:14;19.20;99.90
66710;DHT22;53624;0.000;0.000;2022-11-12T13:55:01;19.10;99.90
66710;DHT22;53624;0.000;0.000;2022-11-12T13:57:50;19.10;99.90
66710;DHT22;53624;0.000;0.000;2022-11-12T14:00:37;19.00;99.90
66710;DHT22;53624;0.000;0.000;2022-11-12T14:03:25;18.90;99.90
66710;DHT22;53624;0.000;0.000;2022-11-12T14:06:14;18.90;99.90
66710;DHT22;53624;0.000;0.000;2022-11-12T14:09:12;18.80;99.90
66710;DHT22;53624;0.000;0.000;2022-11-12T14:12:06;18.80;99.90
66710;DHT22;53624;0.000;0.000;2022-11-12T14:14:59;18.70;99.90
66710;DHT22;53624;0.000;0.000;2022-11-12T14:17:50;18.60;99.90
66710;DHT22;53624;0.000;0.000;2022-11-12T14:20:40;18.60;99.90
66710;DHT22;53624;0.000;0.000;2022-11-12T14:23:27;18.50;99.90
66710;DHT22;53624;0.000;0.000;2022-11-12T14:26:13;18.50;99.90
66710;DHT22;53624;0.000;0.000;2022-11-12T14:29:17;18.40;99.90
66710;DHT22;53624;0.000;0.000;2022-11-12T14:32:07;18.40;99.90
66710;DHT22;53624;0.000;0.000;2022-11-12T14:34:53;18.30;99.90
66710;DHT22;53624;0.000;0.000;2022-11-12T14:37:39;18.30;99.90
66710;DHT22;53624;0.000;0.000;2022-11-12T14:40:29;18.20;99.90
66710;DHT22;53624;0.000;0.000;2022-11-12T14:43:17;18.20;99.90
66710;DHT22;53624;0.000;0.000;2022-11-12T14:46:05;18.20;99.90
66710;DHT22;53624;0.000;0.000;2022-11-12T14:48:54;18.10;99.90
66710;DHT22;53624;0.000;0.000;2022-11-12T14:51:42;18.10;99.90
66710;DHT22;53624;0.000;0.000;2022-11-12T14:54:29;18.00;99.90
66710;DHT22;53624;0.000;0.000;2022-11-12T14:57:17;18.00;99.90
66710;DHT22;53624;0.000;0.000;2022-11-12T15:00:19;18.00;99.90
66710;DHT22;53624;0.000;0.000;2022-11-12T15:03:05;17.90;99.90
66710;DHT22;53624;0.000;0.000;2022-11-12T15:05:53;17.90;99.90
66710;DHT22;53624;0.000;0.000;2022-11-12T15:08:39;17.80;99.90
66710;DHT22;53624;0.000;0.000;2022-11-12T15:11:26;17.80;99.90
66710;DHT22;53624;0.000;0.000;2022-11-12T15:14:18;17.70;99.90
66710;DHT22;53624;0.000;0.000;2022-11-12T15:17:05;17.70;99.90
66710;DHT22;53624;0.000;0.000;2022-11-12T15:19:51;17.70;99.90
66710;DHT22;53624;0.000;0.000;2022-11-12T15:22:38;17.60;99.90
66710;DHT22;53624;0.000;0.000;2022-11-12T15:25:25;17.60;99.90
66710;DHT22;53624;0.000;0.000;2022-11-12T15:28:12;17.50;99.90
66710;DHT22;53624;0.000;0.000;2022-11-12T15:30:59;17.50;99.90
66710;DHT22;53624;0.000;0.000;2022-11-12T15:33:45;17.40;99.90
66710;DHT22;53624;0.000;0.000;2022-11-12T15:36:31;17.40;99.90
66710;DHT22;53624;0.000;0.000;2022-11-12T15:39:18;17.30;99.90
66710;DHT22;53624;0.000;0.000;2022-11-12T15:42:05;17.30;99.90
66710;DHT22;53624;0.000;0.000;2022-11-12T15:44:58;17.30;99.90
66710;DHT22;53624;0.000;0.000;2022-11-12T15:47:45;17.20;99.90
66710;DHT22;53624;0.000;0.000;2022-11-12T15:50:30;17.10;99.90
66710;DHT22;53624;0.000;0.000;2022-11-12T15:53:16;17.10;99.90
66710;DHT22;53624;0.000;0.000;2022-11-12T15:56:05;17.10;99.90
66710;DHT22;53624;0.000;0.000;2022-11-12T15:58:53;17.00;99.90
66710;DHT22;53624;0.000;0.000;2022-11-12T16:01:39;17.00;99.90
66710;DHT22;53624;0.000;0.000;2022-11-12T16:04:25;16.90;99.90
66710;DHT22;53624;0.000;0.000;2022-11-12T16:07:10;16.90;99.90
66710;DHT22;53624;0.000;0.000;2022-11-12T16:09:56;16.90;99.90
66710;DHT22;53624;0.000;0.000;2022-11-12T16:12:44;16.90;99.90
66710;DHT22;53624;0.000;0.000;2022-11-12T16:15:30;16.80;99.90
66710;DHT22;53624;0.000;0.000;2022-11-12T16:18:17;16.80;99.90
66710;DHT22;53624;0.000;0.000;2022-11-12T16:21:03;16.70;99.90
66710;DHT22;53624;0.000;0.000;2022-11-12T16:23:49;16.70;99.90
66710;DHT22;53624;0.000;0.000;2022-11-12T16:26:35;16.60;99.90
66710;DHT22;53624;0.000;0.000;2022-11-12T16:29:23;16.60;99.90
66710;DHT22;53624;0.000;0.000;2022-11-12T16:32:12;16.60;99.90
66710;DHT22;53624;0.000;0.000;2022-11-12T16:34:58;16.50;99.90
66710;DHT22;53624;0.000;0.000;2022-11-12T16:37:45;16.50;99.90
66710;DHT22;53624;0.000;0.000;2022-11-12T16:40:31;16.50;99.90
66710;DHT22;53624;0.000;0.000;2022-11-12T16:43:17;16.50;99.90
66710;DHT22;53624;0.000;0.000;2022-11-12T16:46:11;16.40;99.90
66710;DHT22;53624;0.000;0.000;2022-11-12T16:48:57;16.40;99.90
66710;DHT22;53624;0.000;0.000;2022-11-12T16:51:43;16.40;99.90
66710;DHT22;53624;0.000;0.000;2022-11-12T16:54:30;16.30;99.90
66710;DHT22;53624;0.000;0.000;2022-11-12T16:57:16;16.30;99.90
66710;DHT22;53624;0.000;0.000;2022-11-12T17:00:02;16.30;99.90
66710;DHT22;53624;0.000;0.000;2022-11-12T17:02:50;16.30;99.90
66710;DHT22;53624;0.000;0.000;2022-11-12T17:05:36;16.20;99.90
66710;DHT22;53624;0.000;0.000;2022-11-12T17:08:22;16.20;99.90
66710;DHT22;53624;0.000;0.000;2022-11-12T17:11:12;16.20;99.90
66710;DHT22;53624;0.000;0.000;2022-11-12T17:13:59;16.10;99.90
66710;DHT22;53624;0.000;0.000;2022-11-12T17:16:45;16.10;99.90
66710;DHT22;53624;0.000;0.000;2022-11-12T17:19:32;16.10;99.90
66710;DHT22;53624;0.000;0.000;2022-11-12T17:22:19;16.10;99.90
66710;DHT22;53624;0.000;0.000;2022-11-12T17:25:05;16.10;99.90
66710;DHT22;53624;0.000;0.000;2022-11-12T17:27:51;16.00;99.90
66710;DHT22;53624;0.000;0.000;2022-11-12T17:30:37;16.00;99.90
66710;DHT22;53624;0.000;0.000;2022-11-12T17:33:23;16.00;99.90
66710;DHT22;53624;0.000;0.000;2022-11-12T17:36:11;16.00;99.90
66710;DHT22;53624;0.000;0.000;2022-11-12T17:38:58;15.90;99.90
66710;DHT22;53624;0.000;0.000;2022-11-12T17:41:44;15.90;99.90
66710;DHT22;53624;0.000;0.000;2022-11-12T17:44:30;15.90;99.90
66710;DHT22;53624;0.000;0.000;2022-11-12T17:47:16;15.80;99.90
66710;DHT22;53624;0.000;0.000;2022-11-12T17:50:01;15.80;99.90
66710;DHT22;53624;0.000;0.000;2022-11-12T17:52:49;15.80;99.90
66710;DHT22;53624;0.000;0.000;2022-11-12T17:55:35;15.80;99.90
66710;DHT22;53624;0.000;0.000;2022-11-12T17:58:21;15.80;99.90
66710;DHT22;53624;0.000;0.000;2022-11-12T18:01:08;15.80;99.90
66710;DHT22;53624;0.000;0.000;2022-11-12T18:03:56;15.80;99.90
66710;DHT22;53624;0.000;0.000;2022-11-12T18:06:42;15.70;99.90
66710;DHT22;53624;0.000;0.000;2022-11-12T18:09:30;15.70;99.90
66710;DHT22;53624;0.000;0.000;2022-11-12T18:12:17;15.70;99.90